SPCBI EDDB-EDDC
Flight info
| Callsign | SPCBI |
|---|---|
| Flight time | N/A |
| Altitude | 31000 |
| Route | LUROS4B/06L LUROS M725 KOBUS P31 RIKLU Z21 OMELO DCT LANUX LANU7W LOWW/NER5M.I29-Z |
| Aircraft | SF50/L-SBDGRWY/LB2U2 |
Departure
| Time | N/A |
|---|---|
| Airport | Berlin Brandenburg Airport (EDDB) |
Arrival
| Time | 2026-04-28 20:22 |
|---|---|
| Airport | Dresden Airport (EDDC) |
| Time | Latitude | Longitude | Altitude | Speed | Heading |
|---|---|---|---|---|---|
| 2026-04-28 20:17 | 51.04966 | 13.65159 | 3013 ft | 83 kts | 36° |
| 2026-04-28 20:17 | 51.05447 | 13.65646 | 2599 ft | 81 kts | 43° |
| 2026-04-28 20:17 | 51.05871 | 13.66208 | 2270 ft | 74 kts | 48° |
| 2026-04-28 20:17 | 51.06220 | 13.66702 | 2301 ft | 69 kts | 49° |
| 2026-04-28 20:18 | 51.06598 | 13.67235 | 2386 ft | 78 kts | 47° |
| 2026-04-28 20:18 | 51.06875 | 13.67625 | 2387 ft | 81 kts | 47° |
| 2026-04-28 20:18 | 51.07376 | 13.68321 | 2063 ft | 68 kts | 47° |
| 2026-04-28 20:18 | 51.07715 | 13.68791 | 2006 ft | 70 kts | 48° |
| 2026-04-28 20:19 | 51.08105 | 13.69338 | 1941 ft | 78 kts | 47° |
| 2026-04-28 20:19 | 51.08525 | 13.69927 | 1839 ft | 82 kts | 46° |
| 2026-04-28 20:19 | 51.08956 | 13.70530 | 1718 ft | 82 kts | 45° |
| 2026-04-28 20:19 | 51.09389 | 13.71132 | 1595 ft | 84 kts | 44° |
| 2026-04-28 20:20 | 51.09831 | 13.71760 | 1477 ft | 86 kts | 43° |
| 2026-04-28 20:20 | 51.10287 | 13.72403 | 1358 ft | 88 kts | 41° |
| 2026-04-28 20:20 | 51.10745 | 13.73060 | 1240 ft | 89 kts | 41° |
| 2026-04-28 20:20 | 51.11210 | 13.73698 | 1120 ft | 90 kts | 40° |
| 2026-04-28 20:21 | 51.11635 | 13.74413 | 1001 ft | 89 kts | 44° |
| 2026-04-28 20:21 | 51.12094 | 13.75060 | 887 ft | 89 kts | 37° |
| 2026-04-28 20:21 | 51.12587 | 13.75644 | 778 ft | 85 kts | 38° |
| 2026-04-28 20:21 | 51.12969 | 13.76154 | 745 ft | 61 kts | 40° |
| 2026-04-28 20:22 | 51.13248 | 13.76539 | 738 ft | 46 kts | 45° |
| 2026-04-28 20:22 | 51.13328 | 13.76819 | 731 ft | 23 kts | 133° |
| 2026-04-28 20:22 | 51.13305 | 13.76858 | 730 ft | 0 kts | 133° |
| 2026-04-28 20:23 | 51.13288 | 13.76886 | 729 ft | 15 kts | 134° |
| 2026-04-28 20:23 | 51.13222 | 13.76966 | 730 ft | 19 kts | 182° |
| 2026-04-28 20:24 | 51.13076 | 13.76782 | 738 ft | 25 kts | 221° |
| 2026-04-28 20:24 | 51.12941 | 13.76598 | 742 ft | 25 kts | 220° |
| 2026-04-28 20:24 | 51.12808 | 13.76414 | 744 ft | 26 kts | 221° |
| 2026-04-28 20:24 | 51.12673 | 13.76229 | 747 ft | 26 kts | 220° |
| 2026-04-28 20:25 | 51.12539 | 13.76046 | 752 ft | 25 kts | 220° |
| 2026-04-28 20:25 | 51.12431 | 13.75906 | 755 ft | 8 kts | 175° |
| 2026-04-28 20:25 | 51.12393 | 13.75995 | 757 ft | 13 kts | 131° |
| 2026-04-28 20:25 | 51.12334 | 13.75974 | 757 ft | 12 kts | 335° |
| 2026-04-28 20:26 | 51.12374 | 13.75901 | 757 ft | 7 kts | 252° |
| 2026-04-28 20:26 | 51.12329 | 13.75889 | 756 ft | 10 kts | 137° |
| 2026-04-28 20:26 | 51.12283 | 13.75925 | 756 ft | 0 kts | 224° |